sensor_id;sensor_type;location;lat;lon;timestamp;P1;durP1;ratioP1;P2;durP2;ratioP2
20095;SDS011;10207;50.942;6.900;2023-04-02T00:01:03;21.02;;;11.68;;
20095;SDS011;10207;50.942;6.900;2023-04-02T00:04:14;19.45;;;11.57;;
20095;SDS011;10207;50.942;6.900;2023-04-02T00:08:50;23.40;;;13.20;;
20095;SDS011;10207;50.942;6.900;2023-04-02T00:11:26;25.65;;;14.77;;
20095;SDS011;10207;50.942;6.900;2023-04-02T00:13:54;26.40;;;13.80;;
20095;SDS011;10207;50.942;6.900;2023-04-02T00:16:21;27.10;;;15.75;;
20095;SDS011;10207;50.942;6.900;2023-04-02T00:18:52;26.90;;;14.68;;
20095;SDS011;10207;50.942;6.900;2023-04-02T00:21:23;32.55;;;15.93;;
20095;SDS011;10207;50.942;6.900;2023-04-02T00:23:52;39.58;;;18.02;;
20095;SDS011;10207;50.942;6.900;2023-04-02T00:26:37;37.90;;;18.35;;
20095;SDS011;10207;50.942;6.900;2023-04-02T00:29:08;35.42;;;16.42;;
20095;SDS011;10207;50.942;6.900;2023-04-02T00:31:35;35.30;;;16.98;;
20095;SDS011;10207;50.942;6.900;2023-04-02T00:34:02;38.55;;;18.80;;
20095;SDS011;10207;50.942;6.900;2023-04-02T00:36:30;36.17;;;17.90;;
20095;SDS011;10207;50.942;6.900;2023-04-02T00:38:59;33.85;;;15.90;;
20095;SDS011;10207;50.942;6.900;2023-04-02T00:41:27;15.57;;;8.32;;
20095;SDS011;10207;50.942;6.900;2023-04-02T00:43:54;6.18;;;3.97;;
20095;SDS011;10207;50.942;6.900;2023-04-02T00:46:24;8.93;;;4.63;;
20095;SDS011;10207;50.942;6.900;2023-04-02T00:49:00;4.43;;;2.67;;
20095;SDS011;10207;50.942;6.900;2023-04-02T00:53:53;5.22;;;2.90;;
20095;SDS011;10207;50.942;6.900;2023-04-02T00:56:23;1.92;;;1.30;;
20095;SDS011;10207;50.942;6.900;2023-04-02T00:58:51;2.65;;;1.95;;
20095;SDS011;10207;50.942;6.900;2023-04-02T01:01:18;3.47;;;2.25;;
20095;SDS011;10207;50.942;6.900;2023-04-02T01:03:57;4.30;;;2.55;;
20095;SDS011;10207;50.942;6.900;2023-04-02T01:06:33;5.20;;;3.78;;
20095;SDS011;10207;50.942;6.900;2023-04-02T01:12:09;5.65;;;3.83;;
20095;SDS011;10207;50.942;6.900;2023-04-02T01:22:39;4.85;;;3.08;;
20095;SDS011;10207;50.942;6.900;2023-04-02T01:25:14;8.27;;;4.10;;
20095;SDS011;10207;50.942;6.900;2023-04-02T01:27:44;7.30;;;4.82;;
20095;SDS011;10207;50.942;6.900;2023-04-02T01:30:12;2.92;;;1.73;;
20095;SDS011;10207;50.942;6.900;2023-04-02T01:32:39;7.55;;;4.85;;
20095;SDS011;10207;50.942;6.900;2023-04-02T01:35:05;9.88;;;5.53;;
20095;SDS011;10207;50.942;6.900;2023-04-02T01:40:17;8.25;;;4.50;;
20095;SDS011;10207;50.942;6.900;2023-04-02T01:45:17;7.47;;;4.50;;
20095;SDS011;10207;50.942;6.900;2023-04-02T01:47:44;6.93;;;4.50;;
20095;SDS011;10207;50.942;6.900;2023-04-02T01:52:38;6.35;;;4.43;;
20095;SDS011;10207;50.942;6.900;2023-04-02T01:55:06;6.43;;;3.25;;
20095;SDS011;10207;50.942;6.900;2023-04-02T01:57:32;1.48;;;1.13;;
20095;SDS011;10207;50.942;6.900;2023-04-02T01:59:59;3.50;;;2.95;;
20095;SDS011;10207;50.942;6.900;2023-04-02T02:02:26;4.72;;;3.38;;
20095;SDS011;10207;50.942;6.900;2023-04-02T02:04:52;3.10;;;2.42;;
20095;SDS011;10207;50.942;6.900;2023-04-02T02:07:19;3.08;;;2.00;;
20095;SDS011;10207;50.942;6.900;2023-04-02T02:09:49;4.13;;;2.85;;
20095;SDS011;10207;50.942;6.900;2023-04-02T02:12:15;4.03;;;3.08;;
20095;SDS011;10207;50.942;6.900;2023-04-02T02:14:48;2.30;;;1.73;;
20095;SDS011;10207;50.942;6.900;2023-04-02T02:17:16;3.78;;;2.58;;
20095;SDS011;10207;50.942;6.900;2023-04-02T02:19:43;4.00;;;2.72;;
20095;SDS011;10207;50.942;6.900;2023-04-02T02:22:23;3.58;;;2.53;;
20095;SDS011;10207;50.942;6.900;2023-04-02T02:24:52;3.90;;;2.78;;
20095;SDS011;10207;50.942;6.900;2023-04-02T02:29:51;2.95;;;2.25;;
20095;SDS011;10207;50.942;6.900;2023-04-02T02:32:19;4.03;;;3.03;;
20095;SDS011;10207;50.942;6.900;2023-04-02T02:35:04;4.10;;;2.88;;
20095;SDS011;10207;50.942;6.900;2023-04-02T02:37:36;3.60;;;2.30;;
20095;SDS011;10207;50.942;6.900;2023-04-02T02:40:04;3.60;;;2.75;;
20095;SDS011;10207;50.942;6.900;2023-04-02T02:44:59;4.18;;;2.97;;
20095;SDS011;10207;50.942;6.900;2023-04-02T02:47:27;4.05;;;2.95;;
20095;SDS011;10207;50.942;6.900;2023-04-02T02:49:56;5.40;;;2.92;;
20095;SDS011;10207;50.942;6.900;2023-04-02T02:52:43;2.92;;;2.08;;
20095;SDS011;10207;50.942;6.900;2023-04-02T02:55:14;4.53;;;2.97;;
20095;SDS011;10207;50.942;6.900;2023-04-02T02:58:14;4.75;;;3.35;;
20095;SDS011;10207;50.942;6.900;2023-04-02T03:00:51;4.07;;;3.03;;
20095;SDS011;10207;50.942;6.900;2023-04-02T03:03:19;4.32;;;2.92;;
20095;SDS011;10207;50.942;6.900;2023-04-02T03:05:53;3.33;;;2.30;;
20095;SDS011;10207;50.942;6.900;2023-04-02T03:08:26;3.08;;;2.40;;
20095;SDS011;10207;50.942;6.900;2023-04-02T03:11:08;3.53;;;2.85;;
20095;SDS011;10207;50.942;6.900;2023-04-02T03:13:36;3.47;;;2.78;;
20095;SDS011;10207;50.942;6.900;2023-04-02T03:18:44;4.18;;;2.38;;
20095;SDS011;10207;50.942;6.900;2023-04-02T03:21:30;3.88;;;2.50;;
20095;SDS011;10207;50.942;6.900;2023-04-02T03:24:02;2.95;;;2.53;;
20095;SDS011;10207;50.942;6.900;2023-04-02T03:26:33;3.80;;;2.42;;
20095;SDS011;10207;50.942;6.900;2023-04-02T03:32:15;3.20;;;2.10;;
20095;SDS011;10207;50.942;6.900;2023-04-02T03:34:25;2.45;;;1.85;;
20095;SDS011;10207;50.942;6.900;2023-04-02T03:36:56;3.17;;;2.35;;
20095;SDS011;10207;50.942;6.900;2023-04-02T03:42:15;4.15;;;2.90;;
20095;SDS011;10207;50.942;6.900;2023-04-02T03:44:53;5.47;;;2.85;;
20095;SDS011;10207;50.942;6.900;2023-04-02T03:49:55;6.22;;;4.10;;
20095;SDS011;10207;50.942;6.900;2023-04-02T03:52:24;4.68;;;2.75;;
20095;SDS011;10207;50.942;6.900;2023-04-02T03:54:52;5.15;;;3.42;;
20095;SDS011;10207;50.942;6.900;2023-04-02T04:00:03;4.05;;;2.63;;
20095;SDS011;10207;50.942;6.900;2023-04-02T04:02:34;2.83;;;2.35;;
20095;SDS011;10207;50.942;6.900;2023-04-02T04:05:03;3.78;;;2.50;;
20095;SDS011;10207;50.942;6.900;2023-04-02T04:07:35;4.72;;;3.13;;
20095;SDS011;10207;50.942;6.900;2023-04-02T04:10:03;4.53;;;3.10;;
20095;SDS011;10207;50.942;6.900;2023-04-02T04:12:34;4.05;;;2.85;;
20095;SDS011;10207;50.942;6.900;2023-04-02T04:17:35;7.35;;;5.18;;
20095;SDS011;10207;50.942;6.900;2023-04-02T04:22:33;4.30;;;2.92;;
20095;SDS011;10207;50.942;6.900;2023-04-02T04:25:23;5.80;;;3.88;;
20095;SDS011;10207;50.942;6.900;2023-04-02T04:27:58;7.67;;;4.00;;
20095;SDS011;10207;50.942;6.900;2023-04-02T04:30:48;6.82;;;4.30;;
20095;SDS011;10207;50.942;6.900;2023-04-02T04:33:18;6.22;;;4.32;;
20095;SDS011;10207;50.942;6.900;2023-04-02T04:35:53;7.15;;;5.45;;
20095;SDS011;10207;50.942;6.900;2023-04-02T04:38:34;6.72;;;4.65;;
20095;SDS011;10207;50.942;6.900;2023-04-02T04:46:27;7.13;;;4.65;;
20095;SDS011;10207;50.942;6.900;2023-04-02T04:51:27;6.22;;;4.78;;
20095;SDS011;10207;50.942;6.900;2023-04-02T04:53:55;4.97;;;3.78;;
20095;SDS011;10207;50.942;6.900;2023-04-02T04:56:26;6.05;;;4.13;;
20095;SDS011;10207;50.942;6.900;2023-04-02T04:59:12;7.13;;;4.57;;
20095;SDS011;10207;50.942;6.900;2023-04-02T05:02:01;5.07;;;3.65;;
20095;SDS011;10207;50.942;6.900;2023-04-02T05:07:01;5.10;;;3.97;;
20095;SDS011;10207;50.942;6.900;2023-04-02T05:09:33;5.20;;;3.55;;
20095;SDS011;10207;50.942;6.900;2023-04-02T05:14:50;4.80;;;3.63;;
20095;SDS011;10207;50.942;6.900;2023-04-02T05:20:05;5.70;;;4.30;;
20095;SDS011;10207;50.942;6.900;2023-04-02T05:25:34;4.73;;;3.47;;
20095;SDS011;10207;50.942;6.900;2023-04-02T05:28:09;5.47;;;4.00;;
20095;SDS011;10207;50.942;6.900;2023-04-02T05:30:51;4.50;;;3.58;;
20095;SDS011;10207;50.942;6.900;2023-04-02T05:33:25;5.60;;;3.97;;
20095;SDS011;10207;50.942;6.900;2023-04-02T05:35:58;5.25;;;4.28;;
20095;SDS011;10207;50.942;6.900;2023-04-02T05:38:28;6.95;;;4.88;;
20095;SDS011;10207;50.942;6.900;2023-04-02T05:41:02;6.03;;;3.88;;
20095;SDS011;10207;50.942;6.900;2023-04-02T05:43:31;9.90;;;4.57;;
20095;SDS011;10207;50.942;6.900;2023-04-02T05:46:00;4.53;;;2.72;;
20095;SDS011;10207;50.942;6.900;2023-04-02T05:48:31;6.55;;;4.93;;
20095;SDS011;10207;50.942;6.900;2023-04-02T05:51:00;6.53;;;4.75;;
20095;SDS011;10207;50.942;6.900;2023-04-02T05:53:32;4.47;;;3.83;;
20095;SDS011;10207;50.942;6.900;2023-04-02T05:56:04;6.90;;;5.13;;
20095;SDS011;10207;50.942;6.900;2023-04-02T05:58:36;6.85;;;5.30;;
20095;SDS011;10207;50.942;6.900;2023-04-02T06:01:14;5.30;;;4.37;;
20095;SDS011;10207;50.942;6.900;2023-04-02T06:04:04;6.83;;;5.53;;
20095;SDS011;10207;50.942;6.900;2023-04-02T06:09:14;7.53;;;4.90;;
20095;SDS011;10207;50.942;6.900;2023-04-02T06:11:44;6.13;;;3.65;;
20095;SDS011;10207;50.942;6.900;2023-04-02T06:14:14;6.43;;;4.95;;
20095;SDS011;10207;50.942;6.900;2023-04-02T06:16:44;7.22;;;5.13;;
20095;SDS011;10207;50.942;6.900;2023-04-02T06:19:14;6.40;;;4.40;;
20095;SDS011;10207;50.942;6.900;2023-04-02T06:21:42;6.18;;;3.72;;
20095;SDS011;10207;50.942;6.900;2023-04-02T06:24:08;3.72;;;2.72;;
20095;SDS011;10207;50.942;6.900;2023-04-02T06:26:40;5.72;;;3.08;;
20095;SDS011;10207;50.942;6.900;2023-04-02T06:29:29;6.20;;;4.18;;
20095;SDS011;10207;50.942;6.900;2023-04-02T06:31:58;5.30;;;3.65;;
20095;SDS011;10207;50.942;6.900;2023-04-02T06:34:25;8.15;;;4.90;;
20095;SDS011;10207;50.942;6.900;2023-04-02T06:37:00;7.88;;;4.40;;
20095;SDS011;10207;50.942;6.900;2023-04-02T06:39:30;8.98;;;6.47;;
20095;SDS011;10207;50.942;6.900;2023-04-02T06:44:45;8.43;;;5.00;;
20095;SDS011;10207;50.942;6.900;2023-04-02T06:52:32;10.70;;;6.05;;
20095;SDS011;10207;50.942;6.900;2023-04-02T06:54:59;7.53;;;5.20;;
20095;SDS011;10207;50.942;6.900;2023-04-02T06:57:29;8.60;;;5.30;;
20095;SDS011;10207;50.942;6.900;2023-04-02T06:59:57;8.70;;;5.47;;
20095;SDS011;10207;50.942;6.900;2023-04-02T07:02:28;8.30;;;5.75;;
20095;SDS011;10207;50.942;6.900;2023-04-02T07:05:03;10.07;;;4.80;;
20095;SDS011;10207;50.942;6.900;2023-04-02T07:07:32;10.27;;;6.57;;
20095;SDS011;10207;50.942;6.900;2023-04-02T07:10:01;11.07;;;6.35;;
20095;SDS011;10207;50.942;6.900;2023-04-02T07:12:28;9.98;;;6.13;;
20095;SDS011;10207;50.942;6.900;2023-04-02T07:14:54;10.55;;;6.38;;
20095;SDS011;10207;50.942;6.900;2023-04-02T07:17:22;13.55;;;6.78;;
20095;SDS011;10207;50.942;6.900;2023-04-02T07:19:48;7.82;;;5.20;;
20095;SDS011;10207;50.942;6.900;2023-04-02T07:22:17;10.40;;;6.10;;
20095;SDS011;10207;50.942;6.900;2023-04-02T07:24:44;9.63;;;5.47;;
20095;SDS011;10207;50.942;6.900;2023-04-02T07:27:11;11.13;;;5.90;;
20095;SDS011;10207;50.942;6.900;2023-04-02T07:29:37;9.52;;;6.60;;
20095;SDS011;10207;50.942;6.900;2023-04-02T07:32:08;11.80;;;6.82;;
20095;SDS011;10207;50.942;6.900;2023-04-02T07:34:34;8.57;;;5.37;;
20095;SDS011;10207;50.942;6.900;2023-04-02T07:37:00;8.80;;;6.10;;
20095;SDS011;10207;50.942;6.900;2023-04-02T07:39:27;13.25;;;6.15;;
20095;SDS011;10207;50.942;6.900;2023-04-02T07:41:54;10.07;;;7.10;;
20095;SDS011;10207;50.942;6.900;2023-04-02T07:44:20;8.25;;;6.22;;
20095;SDS011;10207;50.942;6.900;2023-04-02T07:46:46;12.35;;;7.78;;
20095;SDS011;10207;50.942;6.900;2023-04-02T07:49:12;7.88;;;3.35;;
20095;SDS011;10207;50.942;6.900;2023-04-02T07:51:38;9.80;;;6.47;;
20095;SDS011;10207;50.942;6.900;2023-04-02T07:54:04;6.87;;;4.57;;
20095;SDS011;10207;50.942;6.900;2023-04-02T07:56:32;14.48;;;7.80;;
20095;SDS011;10207;50.942;6.900;2023-04-02T07:58:58;13.95;;;8.85;;
20095;SDS011;10207;50.942;6.900;2023-04-02T08:01:25;12.97;;;7.90;;
20095;SDS011;10207;50.942;6.900;2023-04-02T08:03:51;23.05;;;11.63;;
20095;SDS011;10207;50.942;6.900;2023-04-02T08:06:18;13.50;;;8.50;;
20095;SDS011;10207;50.942;6.900;2023-04-02T08:08:44;11.65;;;8.80;;
20095;SDS011;10207;50.942;6.900;2023-04-02T08:11:10;11.38;;;7.05;;
20095;SDS011;10207;50.942;6.900;2023-04-02T08:13:36;7.95;;;4.90;;
20095;SDS011;10207;50.942;6.900;2023-04-02T08:16:02;7.40;;;5.20;;
20095;SDS011;10207;50.942;6.900;2023-04-02T08:18:29;11.18;;;6.65;;
20095;SDS011;10207;50.942;6.900;2023-04-02T08:20:55;10.10;;;6.70;;
20095;SDS011;10207;50.942;6.900;2023-04-02T08:23:21;12.20;;;6.80;;
20095;SDS011;10207;50.942;6.900;2023-04-02T08:25:48;10.82;;;6.97;;
20095;SDS011;10207;50.942;6.900;2023-04-02T08:28:14;7.60;;;5.27;;
20095;SDS011;10207;50.942;6.900;2023-04-02T08:30:40;11.43;;;6.75;;
20095;SDS011;10207;50.942;6.900;2023-04-02T08:33:06;9.00;;;5.38;;
20095;SDS011;10207;50.942;6.900;2023-04-02T08:35:32;9.10;;;6.45;;
20095;SDS011;10207;50.942;6.900;2023-04-02T08:37:58;10.20;;;6.60;;
20095;SDS011;10207;50.942;6.900;2023-04-02T08:40:26;9.27;;;5.17;;
20095;SDS011;10207;50.942;6.900;2023-04-02T08:43:00;14.52;;;6.40;;
20095;SDS011;10207;50.942;6.900;2023-04-02T08:48:00;14.27;;;6.15;;
20095;SDS011;10207;50.942;6.900;2023-04-02T08:50:34;10.03;;;5.13;;
20095;SDS011;10207;50.942;6.900;2023-04-02T08:53:02;10.63;;;7.32;;
20095;SDS011;10207;50.942;6.900;2023-04-02T08:55:36;12.98;;;7.57;;
20095;SDS011;10207;50.942;6.900;2023-04-02T09:00:39;13.05;;;5.10;;
20095;SDS011;10207;50.942;6.900;2023-04-02T09:05:32;11.60;;;6.80;;
20095;SDS011;10207;50.942;6.900;2023-04-02T09:08:00;12.82;;;6.63;;
20095;SDS011;10207;50.942;6.900;2023-04-02T09:10:34;7.78;;;4.05;;
20095;SDS011;10207;50.942;6.900;2023-04-02T09:13:01;11.88;;;7.40;;
20095;SDS011;10207;50.942;6.900;2023-04-02T09:15:32;8.73;;;5.78;;
20095;SDS011;10207;50.942;6.900;2023-04-02T09:17:59;13.48;;;6.63;;
20095;SDS011;10207;50.942;6.900;2023-04-02T09:20:28;10.32;;;5.93;;
20095;SDS011;10207;50.942;6.900;2023-04-02T09:22:54;10.55;;;5.63;;
20095;SDS011;10207;50.942;6.900;2023-04-02T09:25:28;14.60;;;5.35;;
20095;SDS011;10207;50.942;6.900;2023-04-02T09:27:56;10.95;;;6.75;;
20095;SDS011;10207;50.942;6.900;2023-04-02T09:30:28;10.65;;;5.45;;
20095;SDS011;10207;50.942;6.900;2023-04-02T09:32:58;10.25;;;5.93;;
20095;SDS011;10207;50.942;6.900;2023-04-02T09:35:32;10.50;;;5.90;;
20095;SDS011;10207;50.942;6.900;2023-04-02T09:40:42;10.82;;;5.10;;
20095;SDS011;10207;50.942;6.900;2023-04-02T09:43:11;12.10;;;5.75;;
20095;SDS011;10207;50.942;6.900;2023-04-02T09:45:38;7.25;;;4.78;;
20095;SDS011;10207;50.942;6.900;2023-04-02T09:48:14;9.25;;;5.53;;
20095;SDS011;10207;50.942;6.900;2023-04-02T09:50:41;8.52;;;4.82;;
20095;SDS011;10207;50.942;6.900;2023-04-02T09:56:12;9.90;;;5.13;;
20095;SDS011;10207;50.942;6.900;2023-04-02T09:58:39;6.07;;;3.88;;
20095;SDS011;10207;50.942;6.900;2023-04-02T10:01:12;7.25;;;4.57;;
20095;SDS011;10207;50.942;6.900;2023-04-02T10:03:49;11.32;;;4.78;;
20095;SDS011;10207;50.942;6.900;2023-04-02T10:06:14;7.97;;;5.03;;
20095;SDS011;10207;50.942;6.900;2023-04-02T10:08:42;7.33;;;4.70;;
20095;SDS011;10207;50.942;6.900;2023-04-02T10:11:12;12.52;;;5.53;;
20095;SDS011;10207;50.942;6.900;2023-04-02T10:13:45;10.10;;;5.80;;
20095;SDS011;10207;50.942;6.900;2023-04-02T10:16:31;10.07;;;6.10;;
20095;SDS011;10207;50.942;6.900;2023-04-02T10:21:39;9.38;;;5.95;;
20095;SDS011;10207;50.942;6.900;2023-04-02T10:24:09;11.00;;;5.40;;
20095;SDS011;10207;50.942;6.900;2023-04-02T10:29:25;10.02;;;5.70;;
20095;SDS011;10207;50.942;6.900;2023-04-02T10:31:59;7.60;;;5.00;;
20095;SDS011;10207;50.942;6.900;2023-04-02T10:39:56;14.45;;;5.38;;
20095;SDS011;10207;50.942;6.900;2023-04-02T10:49:50;12.95;;;5.47;;
20095;SDS011;10207;50.942;6.900;2023-04-02T10:52:19;12.68;;;5.93;;
20095;SDS011;10207;50.942;6.900;2023-04-02T10:59:48;7.82;;;4.45;;
20095;SDS011;10207;50.942;6.900;2023-04-02T11:02:24;9.48;;;4.95;;
20095;SDS011;10207;50.942;6.900;2023-04-02T11:04:52;12.07;;;4.75;;
20095;SDS011;10207;50.942;6.900;2023-04-02T11:07:19;10.57;;;6.10;;
20095;SDS011;10207;50.942;6.900;2023-04-02T11:09:48;8.90;;;5.05;;
20095;SDS011;10207;50.942;6.900;2023-04-02T11:12:20;7.15;;;4.90;;
20095;SDS011;10207;50.942;6.900;2023-04-02T11:14:48;6.90;;;4.30;;
20095;SDS011;10207;50.942;6.900;2023-04-02T11:17:14;4.50;;;3.47;;
20095;SDS011;10207;50.942;6.900;2023-04-02T11:19:42;8.02;;;3.80;;
20095;SDS011;10207;50.942;6.900;2023-04-02T11:22:24;11.35;;;4.75;;
20095;SDS011;10207;50.942;6.900;2023-04-02T11:24:54;8.63;;;5.30;;
20095;SDS011;10207;50.942;6.900;2023-04-02T11:27:30;13.20;;;5.75;;
20095;SDS011;10207;50.942;6.900;2023-04-02T11:32:39;6.38;;;4.28;;
20095;SDS011;10207;50.942;6.900;2023-04-02T11:37:53;13.38;;;5.57;;
20095;SDS011;10207;50.942;6.900;2023-04-02T11:40:41;10.40;;;5.47;;
20095;SDS011;10207;50.942;6.900;2023-04-02T11:45:52;7.07;;;3.35;;
20095;SDS011;10207;50.942;6.900;2023-04-02T11:50:45;9.38;;;4.72;;
20095;SDS011;10207;50.942;6.900;2023-04-02T11:55:38;11.75;;;6.32;;
20095;SDS011;10207;50.942;6.900;2023-04-02T12:03:33;13.45;;;6.63;;
20095;SDS011;10207;50.942;6.900;2023-04-02T12:06:04;9.15;;;5.93;;
20095;SDS011;10207;50.942;6.900;2023-04-02T12:11:06;6.90;;;3.75;;
20095;SDS011;10207;50.942;6.900;2023-04-02T12:16:05;11.73;;;6.05;;
20095;SDS011;10207;50.942;6.900;2023-04-02T12:18:31;6.60;;;3.77;;
20095;SDS011;10207;50.942;6.900;2023-04-02T12:20:57;5.65;;;2.92;;
20095;SDS011;10207;50.942;6.900;2023-04-02T12:28:23;6.95;;;5.03;;
20095;SDS011;10207;50.942;6.900;2023-04-02T12:30:49;10.57;;;4.72;;
20095;SDS011;10207;50.942;6.900;2023-04-02T12:35:49;8.70;;;5.57;;
20095;SDS011;10207;50.942;6.900;2023-04-02T12:38:22;6.45;;;4.25;;
20095;SDS011;10207;50.942;6.900;2023-04-02T12:40:52;6.43;;;4.60;;
20095;SDS011;10207;50.942;6.900;2023-04-02T12:43:22;10.23;;;5.32;;
20095;SDS011;10207;50.942;6.900;2023-04-02T12:45:50;19.55;;;7.35;;
20095;SDS011;10207;50.942;6.900;2023-04-02T12:48:16;6.75;;;4.75;;
20095;SDS011;10207;50.942;6.900;2023-04-02T12:50:42;8.90;;;4.63;;
20095;SDS011;10207;50.942;6.900;2023-04-02T12:53:17;15.90;;;7.20;;
20095;SDS011;10207;50.942;6.900;2023-04-02T12:55:48;9.32;;;4.28;;
20095;SDS011;10207;50.942;6.900;2023-04-02T12:58:57;5.97;;;4.20;;
20095;SDS011;10207;50.942;6.900;2023-04-02T13:03:43;5.20;;;2.95;;
20095;SDS011;10207;50.942;6.900;2023-04-02T13:06:23;7.00;;;2.75;;
20095;SDS011;10207;50.942;6.900;2023-04-02T13:08:51;6.70;;;4.72;;
20095;SDS011;10207;50.942;6.900;2023-04-02T13:11:17;5.68;;;3.25;;
20095;SDS011;10207;50.942;6.900;2023-04-02T13:13:44;5.93;;;4.05;;
20095;SDS011;10207;50.942;6.900;2023-04-02T13:18:37;5.45;;;3.30;;
20095;SDS011;10207;50.942;6.900;2023-04-02T13:21:04;4.95;;;2.92;;
20095;SDS011;10207;50.942;6.900;2023-04-02T13:23:32;5.10;;;3.53;;
20095;SDS011;10207;50.942;6.900;2023-04-02T13:25:59;7.28;;;4.00;;
20095;SDS011;10207;50.942;6.900;2023-04-02T13:28:26;4.82;;;3.00;;
20095;SDS011;10207;50.942;6.900;2023-04-02T13:30:52;7.55;;;3.78;;
20095;SDS011;10207;50.942;6.900;2023-04-02T13:33:18;8.43;;;4.13;;
20095;SDS011;10207;50.942;6.900;2023-04-02T13:35:45;5.13;;;3.53;;
20095;SDS011;10207;50.942;6.900;2023-04-02T13:38:11;6.30;;;3.17;;
20095;SDS011;10207;50.942;6.900;2023-04-02T13:40:37;10.05;;;4.03;;
20095;SDS011;10207;50.942;6.900;2023-04-02T13:43:03;6.05;;;4.00;;
20095;SDS011;10207;50.942;6.900;2023-04-02T13:45:34;15.80;;;10.27;;
20095;SDS011;10207;50.942;6.900;2023-04-02T13:48:01;8.85;;;6.00;;
20095;SDS011;10207;50.942;6.900;2023-04-02T13:50:28;4.70;;;3.40;;
20095;SDS011;10207;50.942;6.900;2023-04-02T13:52:56;10.15;;;3.72;;
20095;SDS011;10207;50.942;6.900;2023-04-02T13:55:22;6.60;;;3.55;;
20095;SDS011;10207;50.942;6.900;2023-04-02T13:57:50;6.78;;;3.42;;
20095;SDS011;10207;50.942;6.900;2023-04-02T14:00:16;5.72;;;3.33;;
20095;SDS011;10207;50.942;6.900;2023-04-02T14:02:43;7.03;;;4.10;;
20095;SDS011;10207;50.942;6.900;2023-04-02T14:10:33;6.03;;;4.53;;
20095;SDS011;10207;50.942;6.900;2023-04-02T14:18:27;17.48;;;8.75;;
20095;SDS011;10207;50.942;6.900;2023-04-02T14:21:13;7.50;;;4.05;;
20095;SDS011;10207;50.942;6.900;2023-04-02T14:31:45;12.40;;;8.50;;
20095;SDS011;10207;50.942;6.900;2023-04-02T14:42:21;2.78;;;1.58;;
20095;SDS011;10207;50.942;6.900;2023-04-02T14:44:48;5.82;;;2.63;;
20095;SDS011;10207;50.942;6.900;2023-04-02T14:47:18;7.78;;;4.28;;
20095;SDS011;10207;50.942;6.900;2023-04-02T14:49:47;3.15;;;1.83;;
20095;SDS011;10207;50.942;6.900;2023-04-02T14:52:16;3.58;;;2.50;;
20095;SDS011;10207;50.942;6.900;2023-04-02T14:54:59;4.68;;;2.60;;
20095;SDS011;10207;50.942;6.900;2023-04-02T14:57:31;10.23;;;5.10;;
20095;SDS011;10207;50.942;6.900;2023-04-02T15:02:42;4.38;;;3.22;;
20095;SDS011;10207;50.942;6.900;2023-04-02T15:10:33;5.40;;;2.67;;
20095;SDS011;10207;50.942;6.900;2023-04-02T15:13:02;6.55;;;3.47;;
20095;SDS011;10207;50.942;6.900;2023-04-02T15:18:26;8.35;;;4.50;;
20095;SDS011;10207;50.942;6.900;2023-04-02T15:23:33;6.97;;;3.25;;
20095;SDS011;10207;50.942;6.900;2023-04-02T15:26:06;6.50;;;2.97;;
20095;SDS011;10207;50.942;6.900;2023-04-02T15:28:40;2.85;;;1.73;;
20095;SDS011;10207;50.942;6.900;2023-04-02T15:31:10;5.05;;;3.03;;
20095;SDS011;10207;50.942;6.900;2023-04-02T15:33:40;3.63;;;2.85;;
20095;SDS011;10207;50.942;6.900;2023-04-02T15:38:53;4.40;;;3.45;;
20095;SDS011;10207;50.942;6.900;2023-04-02T15:41:24;6.28;;;2.67;;
20095;SDS011;10207;50.942;6.900;2023-04-02T15:44:13;8.82;;;3.60;;
20095;SDS011;10207;50.942;6.900;2023-04-02T15:54:50;5.03;;;3.10;;
20095;SDS011;10207;50.942;6.900;2023-04-02T15:57:21;3.78;;;3.00;;
20095;SDS011;10207;50.942;6.900;2023-04-02T16:07:35;5.82;;;3.33;;
20095;SDS011;10207;50.942;6.900;2023-04-02T16:10:17;6.18;;;2.85;;
20095;SDS011;10207;50.942;6.900;2023-04-02T16:12:45;3.70;;;2.70;;
20095;SDS011;10207;50.942;6.900;2023-04-02T16:15:16;2.70;;;2.28;;
20095;SDS011;10207;50.942;6.900;2023-04-02T16:17:43;5.22;;;2.55;;
20095;SDS011;10207;50.942;6.900;2023-04-02T16:20:21;4.85;;;2.85;;
20095;SDS011;10207;50.942;6.900;2023-04-02T16:23:04;6.35;;;3.08;;
20095;SDS011;10207;50.942;6.900;2023-04-02T16:25:37;3.58;;;2.63;;
20095;SDS011;10207;50.942;6.900;2023-04-02T16:33:13;4.53;;;2.88;;
20095;SDS011;10207;50.942;6.900;2023-04-02T16:46:11;4.15;;;2.10;;
20095;SDS011;10207;50.942;6.900;2023-04-02T16:56:32;3.97;;;2.10;;
20095;SDS011;10207;50.942;6.900;2023-04-02T16:59:17;4.43;;;2.60;;
20095;SDS011;10207;50.942;6.900;2023-04-02T17:02:07;5.70;;;3.03;;
20095;SDS011;10207;50.942;6.900;2023-04-02T17:04:55;5.28;;;2.90;;
20095;SDS011;10207;50.942;6.900;2023-04-02T17:08:07;4.35;;;2.42;;
20095;SDS011;10207;50.942;6.900;2023-04-02T17:10:22;6.57;;;2.35;;
20095;SDS011;10207;50.942;6.900;2023-04-02T17:12:59;4.30;;;2.00;;
20095;SDS011;10207;50.942;6.900;2023-04-02T17:15:26;4.10;;;2.20;;
20095;SDS011;10207;50.942;6.900;2023-04-02T17:17:54;4.88;;;2.55;;
20095;SDS011;10207;50.942;6.900;2023-04-02T17:20:22;4.20;;;1.90;;
20095;SDS011;10207;50.942;6.900;2023-04-02T17:22:48;7.78;;;3.60;;
20095;SDS011;10207;50.942;6.900;2023-04-02T17:25:25;7.63;;;3.17;;
20095;SDS011;10207;50.942;6.900;2023-04-02T17:27:53;3.45;;;2.35;;
20095;SDS011;10207;50.942;6.900;2023-04-02T17:30:22;7.25;;;3.08;;
20095;SDS011;10207;50.942;6.900;2023-04-02T17:32:50;4.00;;;1.80;;
20095;SDS011;10207;50.942;6.900;2023-04-02T17:37:46;7.22;;;2.58;;
20095;SDS011;10207;50.942;6.900;2023-04-02T17:40:18;4.93;;;2.30;;
20095;SDS011;10207;50.942;6.900;2023-04-02T17:42:49;5.13;;;2.63;;
20095;SDS011;10207;50.942;6.900;2023-04-02T17:52:55;3.70;;;2.30;;
20095;SDS011;10207;50.942;6.900;2023-04-02T18:01:04;5.22;;;3.30;;
20095;SDS011;10207;50.942;6.900;2023-04-02T18:06:04;5.10;;;1.85;;
20095;SDS011;10207;50.942;6.900;2023-04-02T18:08:39;4.30;;;2.35;;
20095;SDS011;10207;50.942;6.900;2023-04-02T18:11:09;4.50;;;2.10;;
20095;SDS011;10207;50.942;6.900;2023-04-02T18:24:26;7.93;;;3.08;;
20095;SDS011;10207;50.942;6.900;2023-04-02T18:45:42;6.60;;;1.98;;
20095;SDS011;10207;50.942;6.900;2023-04-02T18:50:57;5.82;;;3.65;;
20095;SDS011;10207;50.942;6.900;2023-04-02T18:53:24;7.18;;;2.33;;
20095;SDS011;10207;50.942;6.900;2023-04-02T18:55:52;9.05;;;3.65;;
20095;SDS011;10207;50.942;6.900;2023-04-02T18:58:22;4.50;;;2.13;;
20095;SDS011;10207;50.942;6.900;2023-04-02T19:00:49;8.70;;;3.55;;
20095;SDS011;10207;50.942;6.900;2023-04-02T19:03:26;7.10;;;2.40;;
20095;SDS011;10207;50.942;6.900;2023-04-02T19:05:58;6.40;;;3.53;;
20095;SDS011;10207;50.942;6.900;2023-04-02T19:08:27;6.35;;;2.78;;
20095;SDS011;10207;50.942;6.900;2023-04-02T19:11:10;4.53;;;2.67;;
20095;SDS011;10207;50.942;6.900;2023-04-02T19:13:38;3.50;;;2.22;;
20095;SDS011;10207;50.942;6.900;2023-04-02T19:18:49;6.60;;;2.30;;
20095;SDS011;10207;50.942;6.900;2023-04-02T19:24:01;9.07;;;3.47;;
20095;SDS011;10207;50.942;6.900;2023-04-02T19:26:35;4.45;;;3.08;;
20095;SDS011;10207;50.942;6.900;2023-04-02T19:36:42;5.47;;;2.20;;
20095;SDS011;10207;50.942;6.900;2023-04-02T19:41:46;7.38;;;4.15;;
20095;SDS011;10207;50.942;6.900;2023-04-02T19:44:15;4.78;;;2.80;;
20095;SDS011;10207;50.942;6.900;2023-04-02T19:46:42;5.25;;;2.38;;
20095;SDS011;10207;50.942;6.900;2023-04-02T19:51:35;6.00;;;2.28;;
20095;SDS011;10207;50.942;6.900;2023-04-02T19:54:01;3.50;;;1.87;;
20095;SDS011;10207;50.942;6.900;2023-04-02T19:56:27;4.20;;;1.90;;
20095;SDS011;10207;50.942;6.900;2023-04-02T19:58:53;4.33;;;2.53;;
20095;SDS011;10207;50.942;6.900;2023-04-02T20:01:19;4.23;;;1.90;;
20095;SDS011;10207;50.942;6.900;2023-04-02T20:03:45;2.58;;;2.03;;